This is the latest recevied weather packets stored in our database for station/object YO4TNV-15. If no packets are shown the sender has not sent any weather packets the latest 10 day(s).
| Time | Temp. | Humidity | Pressure | Rain* | Wind** | Luminosity | Snow |
|---|---|---|---|---|---|---|---|
| 1777781244 | 12.22° C | 44% | 1009.6 hPa | - | - | - | - |
| 1777780353 | 10.56° C | 47% | 1009.4 hPa | - | - | - | - |
| 1777780343 | 10.56° C | 47% | 1009.4 hPa | - | - | - | - |
| 1777779453 | 6.11° C | 65% | 1009.5 hPa | - | - | - | - |
| 1777779443 | 6.11° C | 65% | 1009.5 hPa | - | - | - | - |
| 1777778553 | 4.44° C | 71% | 1009.3 hPa | - | - | - | - |
| 1777778543 | 4.44° C | 71% | 1009.3 hPa | - | - | - | - |
| 1777777656 | 3.89° C | 71% | 1009.3 hPa | - | - | - | - |
| 1777777643 | 3.89° C | 71% | 1009.3 hPa | - | - | - | - |
| 1777776752 | 3.89° C | 70% | 1009.3 hPa | - | - | - | - |
| 1777776743 | 3.89° C | 70% | 1009.3 hPa | - | - | - | - |
| 1777775852 | 4.44° C | 69% | 1009.2 hPa | - | - | - | - |
| 1777775843 | 4.44° C | 69% | 1009.2 hPa | - | - | - | - |
| 1777774953 | 4.44° C | 67% | 1009.1 hPa | - | - | - | - |
| 1777774942 | 4.44° C | 67% | 1009.1 hPa | - | - | - | - |
| 1777774052 | 4.44° C | 66% | 1009.1 hPa | - | - | - | - |
| 1777774042 | 4.44° C | 66% | 1009.1 hPa | - | - | - | - |
| 1777773142 | 4.44° C | 64% | 1009.1 hPa | - | - | - | - |
| 1777772252 | 5° C | 61% | 1009.1 hPa | - | - | - | - |
| 1777772242 | 5° C | 61% | 1009.1 hPa | - | - | - | - |
| 1777771352 | 5.56° C | 61% | 1009.1 hPa | - | - | - | - |
| 1777771342 | 5.56° C | 61% | 1009.1 hPa | - | - | - | - |
| 1777770442 | 6.11° C | 58% | 1009.2 hPa | - | - | - | - |
| 1777769553 | 6.11° C | 57% | 1009.2 hPa | - | - | - | - |
| 1777769541 | 6.11° C | 57% | 1009.2 hPa | - | - | - | - |
* Rain since midnight (hover to see other rain measurements)
** Current wind speed in m/s (hover to see current wind gust speed)